createdAt,value
2018-09-28T00:02:27.240Z,13.40
2018-09-28T00:05:31.544Z,18.70
2018-09-28T00:08:35.830Z,16.27
2018-09-28T00:11:40.088Z,22.47
2018-09-28T00:14:44.379Z,17.23
2018-09-28T00:17:49.891Z,17.57
2018-09-28T00:20:54.182Z,11.73
2018-09-28T00:23:58.448Z,15.60
2018-09-28T00:27:02.712Z,16.93
2018-09-28T00:30:07.218Z,15.80
2018-09-28T00:33:11.543Z,17.60
2018-09-28T00:36:16.132Z,14.67
2018-09-28T00:39:20.433Z,20.73
2018-09-28T00:42:24.689Z,20.00
2018-09-28T00:45:28.957Z,13.43
2018-09-28T00:48:33.262Z,21.03
2018-09-28T00:51:37.533Z,17.27
2018-09-28T00:54:41.822Z,18.63
2018-09-28T00:57:46.097Z,18.87
2018-09-28T01:00:50.436Z,11.93
2018-09-28T01:03:54.713Z,17.67
2018-09-28T01:06:59.014Z,15.70
2018-09-28T01:10:03.301Z,14.90
2018-09-28T01:13:07.715Z,18.20
2018-09-28T01:16:12.054Z,23.47
2018-09-28T01:19:16.339Z,10.40
2018-09-28T01:22:20.663Z,19.27
2018-09-28T01:25:24.953Z,15.00
2018-09-28T01:28:29.239Z,12.50
2018-09-28T01:31:33.550Z,17.50
2018-09-28T01:34:39.140Z,16.83
2018-09-28T01:37:43.437Z,13.17
2018-09-28T01:40:47.764Z,23.47
2018-09-28T01:43:52.057Z,14.03
2018-09-28T01:46:56.324Z,16.47
2018-09-28T01:50:01.139Z,22.07
2018-09-28T01:53:05.422Z,14.50
2018-09-28T01:56:09.708Z,21.27
2018-09-28T01:59:14.002Z,17.73
2018-09-28T02:02:18.291Z,23.03
2018-09-28T02:05:22.553Z,19.87
2018-09-28T02:08:26.824Z,23.13
2018-09-28T02:11:31.081Z,12.30
2018-09-28T02:14:35.353Z,19.23
2018-09-28T02:17:39.635Z,19.97
2018-09-28T02:20:45.496Z,18.90
2018-09-28T02:23:49.790Z,16.10
2018-09-28T02:26:54.085Z,18.53
2018-09-28T02:29:58.366Z,20.03
2018-09-28T02:33:02.703Z,14.43
2018-09-28T02:36:07.000Z,16.33
2018-09-28T02:39:11.260Z,19.83
2018-09-28T02:42:15.508Z,17.83
2018-09-28T02:45:19.781Z,20.17
2018-09-28T02:48:24.110Z,13.50
2018-09-28T02:51:28.490Z,21.03
2018-09-28T02:54:32.740Z,12.53
2018-09-28T02:57:37.028Z,15.80
2018-09-28T03:00:41.302Z,21.47
2018-09-28T03:03:45.604Z,16.57
2018-09-28T03:06:50.812Z,15.97
2018-09-28T03:09:55.112Z,14.53
2018-09-28T03:12:59.391Z,15.03
2018-09-28T03:16:03.688Z,12.33
2018-09-28T03:19:07.967Z,13.37
2018-09-28T03:22:12.254Z,16.17
2018-09-28T03:25:16.505Z,18.93
2018-09-28T03:28:20.818Z,10.90
2018-09-28T03:31:25.090Z,14.17
2018-09-28T03:34:29.352Z,19.90
2018-09-28T03:37:33.668Z,18.60
2018-09-28T03:40:38.002Z,17.10
2018-09-28T03:43:42.251Z,16.80
2018-09-28T03:46:46.517Z,19.10
2018-09-28T03:49:51.005Z,11.70
2018-09-28T03:52:55.291Z,15.57
2018-09-28T03:55:59.518Z,16.53
2018-09-28T03:59:03.792Z,16.83
2018-09-28T04:02:08.153Z,20.50
2018-09-28T04:05:12.423Z,17.57
2018-09-28T04:08:17.314Z,15.70
2018-09-28T04:11:21.594Z,17.50
2018-09-28T04:14:25.862Z,18.20
2018-09-28T04:17:30.137Z,14.20
2018-09-28T04:20:34.372Z,13.80
2018-09-28T04:23:39.189Z,11.10
2018-09-28T04:26:44.016Z,19.63
2018-09-28T04:29:48.283Z,11.53
2018-09-28T04:32:52.558Z,14.00
2018-09-28T04:35:56.809Z,16.30
2018-09-28T04:39:01.044Z,10.27
2018-09-28T04:42:05.314Z,12.13
2018-09-28T04:45:09.577Z,14.40
2018-09-28T04:48:14.846Z,10.87
2018-09-28T04:51:19.137Z,15.13
2018-09-28T04:54:23.390Z,19.13
2018-09-28T04:57:27.872Z,16.53
2018-09-28T05:00:32.150Z,14.43
2018-09-28T05:03:36.434Z,13.73
2018-09-28T05:06:41.718Z,11.47
2018-09-28T05:09:46.015Z,11.47
2018-09-28T05:12:50.252Z,10.33
2018-09-28T05:15:54.530Z,17.17
2018-09-28T05:18:58.835Z,11.00
2018-09-28T05:22:04.007Z,11.07
2018-09-28T05:25:08.681Z,11.83
2018-09-28T05:28:12.941Z,11.73
2018-09-28T05:31:17.317Z,17.00
2018-09-28T05:34:21.474Z,23.70
2018-09-28T05:37:25.726Z,17.90
2018-09-28T05:40:29.972Z,12.17
2018-09-28T05:43:35.028Z,11.60
2018-09-28T05:46:39.260Z,11.20
2018-09-28T05:49:43.516Z,11.60
2018-09-28T05:52:47.813Z,11.50
2018-09-28T05:55:52.141Z,11.70
2018-09-28T05:59:01.699Z,11.53
2018-09-28T06:02:11.361Z,12.47
2018-09-28T06:05:21.065Z,16.10
2018-09-28T06:08:25.388Z,18.30
2018-09-28T06:11:29.640Z,15.87
2018-09-28T06:14:33.901Z,14.10
2018-09-28T06:17:38.161Z,11.13
2018-09-28T06:20:42.427Z,14.97
2018-09-28T06:23:46.691Z,15.10
2018-09-28T06:26:50.970Z,13.07
2018-09-28T06:29:55.349Z,17.27
2018-09-28T06:32:59.630Z,17.23
2018-09-28T06:36:03.926Z,11.03
2018-09-28T06:39:08.356Z,15.63
2018-09-28T06:42:12.677Z,14.77
2018-09-28T06:45:16.948Z,14.43
2018-09-28T06:48:21.714Z,14.93
2018-09-28T06:51:26.050Z,16.37
2018-09-28T06:54:30.347Z,11.83
2018-09-28T06:57:34.624Z,14.90
2018-09-28T07:00:45.833Z,21.67
2018-09-28T07:03:50.363Z,8.30
2018-09-28T07:06:54.716Z,13.90
2018-09-28T07:09:58.973Z,9.03
2018-09-28T07:13:03.300Z,14.17
2018-09-28T07:16:07.615Z,14.43
2018-09-28T07:19:11.913Z,13.83
2018-09-28T07:22:16.216Z,11.57
2018-09-28T07:25:20.522Z,10.23
2018-09-28T07:28:24.847Z,23.20
2018-09-28T07:31:29.110Z,13.03
2018-09-28T07:34:33.449Z,12.80
2018-09-28T07:37:37.712Z,13.00
2018-09-28T07:40:42.057Z,12.60
2018-09-28T07:43:46.357Z,10.10
2018-09-28T07:46:50.668Z,6.67
2018-09-28T07:49:54.924Z,11.13
2018-09-28T07:52:59.273Z,13.97
2018-09-28T07:56:03.572Z,9.90
2018-09-28T07:59:07.900Z,11.63
2018-09-28T08:02:12.154Z,11.40
2018-09-28T08:05:16.471Z,12.37
2018-09-28T08:08:20.796Z,10.30
2018-09-28T08:11:25.100Z,10.70
2018-09-28T08:14:29.392Z,13.57
2018-09-28T08:17:33.731Z,16.63
2018-09-28T08:20:38.009Z,9.80
2018-09-28T08:23:42.946Z,12.63
2018-09-28T08:26:47.251Z,10.90
2018-09-28T08:29:51.542Z,18.30
2018-09-28T08:32:56.010Z,12.43
2018-09-28T08:36:01.411Z,9.57
2018-09-28T08:39:08.217Z,13.10
2018-09-28T08:42:14.315Z,12.73
2018-09-28T08:45:18.598Z,12.57
2018-09-28T08:48:22.856Z,18.20
2018-09-28T08:51:27.141Z,15.30
2018-09-28T08:54:31.396Z,9.03
2018-09-28T08:57:35.682Z,12.73
2018-09-28T09:00:39.932Z,16.93
2018-09-28T09:03:44.207Z,12.97
2018-09-28T09:06:48.485Z,12.30
2018-09-28T09:09:52.736Z,11.63
2018-09-28T09:12:57.013Z,11.20
2018-09-28T09:16:01.251Z,15.43
2018-09-28T09:19:05.556Z,9.33
2018-09-28T09:22:09.949Z,8.00
2018-09-28T09:25:14.212Z,9.23
2018-09-28T09:28:18.552Z,12.63
2018-09-28T09:31:22.820Z,15.00
2018-09-28T09:34:27.125Z,9.23
2018-09-28T09:37:31.533Z,10.17
2018-09-28T09:40:35.841Z,6.67
2018-09-28T09:43:40.118Z,7.40
2018-09-28T09:46:44.358Z,6.67
2018-09-28T09:49:48.663Z,7.47
2018-09-28T09:52:53.722Z,6.77
2018-09-28T09:55:58.064Z,10.07
2018-09-28T09:59:02.325Z,11.70
2018-09-28T10:02:11.921Z,8.53
2018-09-28T10:05:16.207Z,10.97
2018-09-28T10:08:20.513Z,9.43
2018-09-28T10:11:24.793Z,10.77
2018-09-28T10:14:29.087Z,13.53
2018-09-28T10:17:33.406Z,11.73
2018-09-28T10:20:37.678Z,9.13
2018-09-28T10:23:41.981Z,8.60
2018-09-28T10:26:46.325Z,11.67
2018-09-28T10:29:50.594Z,11.37
2018-09-28T10:32:54.881Z,5.90
2018-09-28T10:35:59.124Z,10.47
2018-09-28T10:39:03.467Z,8.87
2018-09-28T10:42:08.038Z,10.23
2018-09-28T10:45:12.397Z,10.13
2018-09-28T10:48:16.645Z,10.57
2018-09-28T10:51:21.042Z,8.37
2018-09-28T10:54:25.308Z,9.73
2018-09-28T10:57:29.674Z,7.30
2018-09-28T11:00:34.019Z,11.90
2018-09-28T11:03:38.389Z,10.10
2018-09-28T11:06:42.661Z,11.83
2018-09-28T11:09:47.071Z,6.03
2018-09-28T11:12:51.333Z,11.57
2018-09-28T11:15:55.625Z,6.43
2018-09-28T11:18:59.947Z,8.73
2018-09-28T11:22:04.186Z,8.77
2018-09-28T11:25:08.512Z,10.27
2018-09-28T11:28:12.797Z,6.47
2018-09-28T11:31:17.065Z,6.53
2018-09-28T11:34:21.359Z,8.80
2018-09-28T11:37:25.651Z,8.50
2018-09-28T11:40:30.568Z,6.60
2018-09-28T11:43:34.833Z,7.37
2018-09-28T11:46:39.093Z,8.87
2018-09-28T11:49:43.339Z,6.17
2018-09-28T11:52:47.624Z,7.97
2018-09-28T11:55:51.893Z,6.40
2018-09-28T11:58:56.169Z,7.83
2018-09-28T12:02:00.419Z,9.37
2018-09-28T12:05:04.693Z,5.47
2018-09-28T12:08:08.945Z,9.57
2018-09-28T12:11:13.228Z,9.33
2018-09-28T12:14:17.491Z,8.00
2018-09-28T12:17:22.880Z,6.40
2018-09-28T12:20:27.179Z,8.27
2018-09-28T12:23:31.481Z,6.97
2018-09-28T12:26:35.791Z,5.37
2018-09-28T12:29:40.054Z,9.27
2018-09-28T12:32:44.337Z,9.63
2018-09-28T12:35:48.677Z,5.77
2018-09-28T12:38:53.007Z,7.07
2018-09-28T12:41:57.243Z,9.93
2018-09-28T12:45:01.529Z,10.97
2018-09-28T12:48:05.859Z,12.57
2018-09-28T12:51:10.136Z,7.20
2018-09-28T12:54:14.414Z,10.80
2018-09-28T12:57:18.647Z,9.27
2018-09-28T13:00:25.130Z,9.30
2018-09-28T13:03:29.307Z,10.47
2018-09-28T13:06:33.632Z,9.97
2018-09-28T13:09:37.928Z,11.57
2018-09-28T13:12:42.214Z,12.33
2018-09-28T13:15:46.860Z,11.57
2018-09-28T13:18:52.147Z,11.63
2018-09-28T13:21:56.375Z,11.20
2018-09-28T13:25:00.672Z,8.50
2018-09-28T13:28:04.998Z,16.87
2018-09-28T13:31:09.317Z,10.80
2018-09-28T13:34:13.584Z,7.87
2018-09-28T13:37:17.826Z,13.00
2018-09-28T13:40:22.222Z,16.93
2018-09-28T13:43:26.491Z,11.23
2018-09-28T13:46:30.972Z,12.40
2018-09-28T13:49:35.134Z,9.43
2018-09-28T13:52:39.510Z,6.60
2018-09-28T13:55:43.812Z,8.53
2018-09-28T13:58:48.148Z,5.97
2018-09-28T14:01:52.381Z,7.33
2018-09-28T14:04:56.667Z,13.13
2018-09-28T14:08:00.945Z,12.70
2018-09-28T14:11:05.273Z,10.53
2018-09-28T14:14:09.555Z,11.20
2018-09-28T14:17:13.924Z,11.53
2018-09-28T14:20:18.222Z,9.87
2018-09-28T14:23:22.496Z,8.43
2018-09-28T14:26:26.840Z,6.17
2018-09-28T14:29:31.096Z,8.57
2018-09-28T14:32:35.436Z,6.87
2018-09-28T14:35:39.700Z,6.37
2018-09-28T14:38:45.157Z,9.33
2018-09-28T14:41:49.991Z,10.37
2018-09-28T14:44:54.236Z,10.83
2018-09-28T14:47:58.559Z,5.73
2018-09-28T14:51:02.977Z,5.97
2018-09-28T14:54:07.318Z,4.97
2018-09-28T14:57:11.561Z,4.47
2018-09-28T15:00:15.931Z,3.67
2018-09-28T15:03:20.309Z,4.70
2018-09-28T15:06:24.613Z,4.27
2018-09-28T15:09:28.832Z,6.83
2018-09-28T15:12:33.690Z,5.13
2018-09-28T15:15:37.943Z,5.50
2018-09-28T15:18:43.362Z,7.80
2018-09-28T15:21:47.577Z,6.33
2018-09-28T15:24:51.858Z,9.23
2018-09-28T15:27:56.217Z,8.00
2018-09-28T15:31:00.514Z,8.50
2018-09-28T15:34:04.813Z,6.03
2018-09-28T15:37:09.103Z,7.63
2018-09-28T15:40:13.357Z,4.80
2018-09-28T15:43:17.681Z,3.87
2018-09-28T15:46:21.970Z,5.53
2018-09-28T15:49:26.379Z,4.03
2018-09-28T15:52:30.629Z,5.60
2018-09-28T15:55:34.859Z,9.27
2018-09-28T15:58:39.277Z,6.07
2018-09-28T16:01:43.553Z,23.60
2018-09-28T16:04:47.849Z,22.00
2018-09-28T16:07:52.162Z,31.17
2018-09-28T16:10:56.442Z,11.10
2018-09-28T16:14:00.691Z,8.00
2018-09-28T16:17:04.974Z,4.40
2018-09-28T16:20:09.513Z,7.13
2018-09-28T16:23:13.821Z,4.87
2018-09-28T16:26:18.100Z,9.37
2018-09-28T16:29:22.386Z,6.77
2018-09-28T16:32:27.394Z,8.47
2018-09-28T16:35:31.765Z,11.57
2018-09-28T16:38:36.041Z,7.40
2018-09-28T16:41:41.189Z,9.40
2018-09-28T16:44:45.473Z,7.70
2018-09-28T16:47:49.802Z,10.17
2018-09-28T16:50:54.051Z,8.07
2018-09-28T16:53:58.325Z,4.97
2018-09-28T16:57:02.597Z,8.47
2018-09-28T17:00:06.897Z,12.90
2018-09-28T17:03:11.205Z,10.17
2018-09-28T17:06:15.568Z,12.97
2018-09-28T17:09:19.878Z,15.60
2018-09-28T17:12:24.121Z,14.10
2018-09-28T17:15:28.430Z,11.57
2018-09-28T17:18:32.706Z,9.90
2018-09-28T17:21:37.000Z,8.97
2018-09-28T17:24:41.296Z,12.00
2018-09-28T17:27:45.599Z,9.40
2018-09-28T17:30:49.888Z,9.77
2018-09-28T17:33:54.200Z,8.40
2018-09-28T17:36:58.488Z,11.33
2018-09-28T17:40:02.792Z,9.60
2018-09-28T17:43:07.110Z,14.50
2018-09-28T17:46:11.390Z,12.03
2018-09-28T17:49:15.654Z,10.23
2018-09-28T17:52:19.970Z,9.80
2018-09-28T17:55:24.956Z,13.33
2018-09-28T17:58:29.289Z,8.43
2018-09-28T18:01:33.583Z,10.00
2018-09-28T18:04:37.890Z,10.63
2018-09-28T18:07:42.206Z,14.23
2018-09-28T18:10:46.458Z,17.33
2018-09-28T18:13:50.805Z,13.17
2018-09-28T18:16:55.237Z,19.90
2018-09-28T18:19:59.519Z,10.37
2018-09-28T18:23:03.816Z,7.73
2018-09-28T18:26:08.104Z,19.40
2018-09-28T18:29:12.365Z,14.03
2018-09-28T18:32:16.629Z,16.80
2018-09-28T18:35:20.942Z,19.47
2018-09-28T18:38:25.232Z,27.83
2018-09-28T18:41:29.516Z,31.87
2018-09-28T18:44:33.793Z,32.07
2018-09-28T18:47:38.122Z,36.40
2018-09-28T18:50:42.404Z,49.30
2018-09-28T18:53:46.784Z,45.30
2018-09-28T18:56:51.388Z,25.23
2018-09-28T18:59:55.729Z,16.90
2018-09-28T19:03:00.001Z,12.03
2018-09-28T19:06:04.406Z,9.10
2018-09-28T19:09:11.894Z,12.17
2018-09-28T19:12:16.949Z,8.37
2018-09-28T19:15:23.825Z,12.23
2018-09-28T19:18:30.043Z,8.03
2018-09-28T19:21:35.103Z,12.40
2018-09-28T19:24:39.946Z,9.23
2018-09-28T19:27:44.798Z,6.83
2018-09-28T19:30:53.689Z,9.90
2018-09-28T19:33:58.027Z,7.63
2018-09-28T19:37:03.445Z,7.03
2018-09-28T19:40:09.873Z,7.63
2018-09-28T19:43:16.672Z,13.70
2018-09-28T19:46:21.749Z,11.47
2018-09-28T19:49:28.172Z,15.23
2018-09-28T19:52:33.104Z,10.80
2018-09-28T19:55:37.904Z,9.80
2018-09-28T19:58:43.442Z,14.17
2018-09-28T20:01:51.539Z,10.90
2018-09-28T20:04:56.022Z,10.63
2018-09-28T20:08:01.514Z,11.97
2018-09-28T20:11:06.853Z,12.17
2018-09-28T20:14:13.086Z,28.87
2018-09-28T20:17:17.594Z,21.00
2018-09-28T20:20:22.780Z,19.33
2018-09-28T20:23:28.442Z,16.70
2018-09-28T20:26:33.823Z,9.03
2018-09-28T20:29:38.987Z,12.17
2018-09-28T20:32:43.742Z,11.47
2018-09-28T20:35:48.493Z,15.37
2018-09-28T20:38:54.422Z,10.87
2018-09-28T20:41:59.845Z,13.60
2018-09-28T20:45:04.148Z,11.87
2018-09-28T20:48:08.690Z,12.67
2018-09-28T20:51:14.028Z,7.67
2018-09-28T20:54:18.520Z,14.07
2018-09-28T20:57:22.785Z,16.27
2018-09-28T21:00:27.077Z,17.27
2018-09-28T21:03:31.344Z,12.93
2018-09-28T21:06:35.574Z,11.47
2018-09-28T21:09:39.900Z,11.93
2018-09-28T21:12:44.137Z,12.03
2018-09-28T21:15:48.460Z,8.43
2018-09-28T21:18:53.170Z,14.10
2018-09-28T21:21:57.678Z,9.70
2018-09-28T21:25:01.932Z,12.37
2018-09-28T21:28:06.197Z,17.23
2018-09-28T21:31:10.467Z,12.93
2018-09-28T21:34:14.869Z,10.23
2018-09-28T21:37:19.127Z,12.87
2018-09-28T21:40:24.321Z,7.77
2018-09-28T21:43:28.574Z,9.37
2018-09-28T21:46:33.442Z,11.67
2018-09-28T21:49:37.754Z,10.90
2018-09-28T21:52:42.112Z,27.87
2018-09-28T21:55:46.592Z,15.27
2018-09-28T21:58:50.872Z,18.67
2018-09-28T22:01:55.134Z,12.20
2018-09-28T22:04:59.675Z,10.07
2018-09-28T22:08:04.272Z,9.13
2018-09-28T22:11:09.921Z,9.00
2018-09-28T22:14:15.085Z,11.63
2018-09-28T22:17:20.308Z,10.50
2018-09-28T22:20:24.747Z,15.73
2018-09-28T22:23:29.022Z,11.17
2018-09-28T22:26:34.293Z,11.27
2018-09-28T22:29:38.669Z,10.13
2018-09-28T22:32:42.939Z,11.33
2018-09-28T22:35:47.193Z,14.43
2018-09-28T22:38:51.428Z,17.97
2018-09-28T22:41:55.734Z,13.07
2018-09-28T22:45:00.021Z,13.47
2018-09-28T22:48:04.287Z,8.63
2018-09-28T22:51:08.545Z,13.30
2018-09-28T22:54:12.789Z,9.47
2018-09-28T22:57:17.039Z,11.77
2018-09-28T23:00:21.317Z,9.07
2018-09-28T23:03:25.565Z,11.50
2018-09-28T23:06:29.824Z,8.00
2018-09-28T23:09:34.105Z,9.27
2018-09-28T23:12:38.436Z,10.33
2018-09-28T23:15:42.699Z,10.33
2018-09-28T23:18:46.966Z,6.77
2018-09-28T23:21:51.878Z,11.17
2018-09-28T23:24:56.121Z,8.90
2018-09-28T23:28:00.335Z,7.83
2018-09-28T23:31:04.606Z,9.03
2018-09-28T23:34:08.873Z,8.23
2018-09-28T23:37:13.126Z,6.87
2018-09-28T23:40:17.389Z,10.00
2018-09-28T23:43:21.658Z,9.70
2018-09-28T23:46:25.882Z,10.27
2018-09-28T23:49:30.305Z,9.23
2018-09-28T23:52:34.561Z,6.97
2018-09-28T23:55:38.790Z,9.13
2018-09-28T23:58:43.045Z,6.47
